Galeville, New York
Current Conditions -  °F | °C
As of 10:54 PM on Sunday 23 Nov 2014 (Local Time) from KSYR Reporting Station
Overcast Overcast  
Wind Chill: 12°   Ceiling: 20000
Heat Index: 12°   Visibility: 10mi
Dew Point:   Wind: 15mph
Humidity: 51%   Direction: 140°SE
Pressure: 29.83"   Gusts: NA
Location:  43.1098°N, 76.1878°W
Report Text: KSYR 240354Z 14013KT 10SM SCT120 OVC200 12/02 A2983 RMK AO2 SLP098 T01220022 $
Loading
Personal Weather Stations






























Interactive Weather Map New forecast layout! Learn more

10-Day Weather Forecast

Advertisements
Track Severe Weather on mobile